sensor_id;sensor_type;location;lat;lon;timestamp;P1;durP1;ratioP1;P2;durP2;ratioP2
4061;SDS011;2046;47.064;15.456;2023-07-20T00:02:07;4.40;;;3.25;;
4061;SDS011;2046;47.064;15.456;2023-07-20T00:04:34;4.38;;;3.03;;
4061;SDS011;2046;47.064;15.456;2023-07-20T00:07:01;4.53;;;3.05;;
4061;SDS011;2046;47.064;15.456;2023-07-20T00:09:28;7.53;;;3.20;;
4061;SDS011;2046;47.064;15.456;2023-07-20T00:11:54;4.38;;;3.13;;
4061;SDS011;2046;47.064;15.456;2023-07-20T00:14:21;8.07;;;2.92;;
4061;SDS011;2046;47.064;15.456;2023-07-20T00:16:50;6.55;;;3.40;;
4061;SDS011;2046;47.064;15.456;2023-07-20T00:19:23;5.90;;;2.95;;
4061;SDS011;2046;47.064;15.456;2023-07-20T00:21:50;5.20;;;3.08;;
4061;SDS011;2046;47.064;15.456;2023-07-20T00:24:16;6.22;;;3.38;;
4061;SDS011;2046;47.064;15.456;2023-07-20T00:26:43;3.42;;;3.00;;
4061;SDS011;2046;47.064;15.456;2023-07-20T00:29:10;3.55;;;2.60;;
4061;SDS011;2046;47.064;15.456;2023-07-20T00:31:37;3.50;;;2.92;;
4061;SDS011;2046;47.064;15.456;2023-07-20T00:34:04;4.50;;;2.97;;
4061;SDS011;2046;47.064;15.456;2023-07-20T00:36:30;4.30;;;3.47;;
4061;SDS011;2046;47.064;15.456;2023-07-20T00:38:57;5.38;;;3.63;;
4061;SDS011;2046;47.064;15.456;2023-07-20T00:41:24;5.93;;;3.67;;
4061;SDS011;2046;47.064;15.456;2023-07-20T00:43:50;9.57;;;3.80;;
4061;SDS011;2046;47.064;15.456;2023-07-20T00:46:17;4.35;;;3.22;;
4061;SDS011;2046;47.064;15.456;2023-07-20T00:48:44;5.07;;;3.13;;
4061;SDS011;2046;47.064;15.456;2023-07-20T00:51:11;6.15;;;3.53;;
4061;SDS011;2046;47.064;15.456;2023-07-20T00:53:37;5.65;;;3.88;;
4061;SDS011;2046;47.064;15.456;2023-07-20T00:56:04;8.73;;;3.38;;
4061;SDS011;2046;47.064;15.456;2023-07-20T00:58:31;6.43;;;3.25;;
4061;SDS011;2046;47.064;15.456;2023-07-20T01:00:58;4.32;;;3.22;;
4061;SDS011;2046;47.064;15.456;2023-07-20T01:03:24;9.85;;;3.13;;
4061;SDS011;2046;47.064;15.456;2023-07-20T01:05:56;4.20;;;3.40;;
4061;SDS011;2046;47.064;15.456;2023-07-20T01:10:55;6.00;;;3.20;;
4061;SDS011;2046;47.064;15.456;2023-07-20T01:13:22;4.63;;;3.20;;
4061;SDS011;2046;47.064;15.456;2023-07-20T01:15:50;6.63;;;3.20;;
4061;SDS011;2046;47.064;15.456;2023-07-20T01:18:17;6.72;;;3.42;;
4061;SDS011;2046;47.064;15.456;2023-07-20T01:20:44;4.38;;;2.78;;
4061;SDS011;2046;47.064;15.456;2023-07-20T01:33:37;5.78;;;3.00;;
4061;SDS011;2046;47.064;15.456;2023-07-20T01:36:04;4.30;;;2.90;;
4061;SDS011;2046;47.064;15.456;2023-07-20T01:38:31;3.72;;;2.97;;
4061;SDS011;2046;47.064;15.456;2023-07-20T01:40:58;3.90;;;2.90;;
4061;SDS011;2046;47.064;15.456;2023-07-20T01:43:25;5.57;;;2.97;;
4061;SDS011;2046;47.064;15.456;2023-07-20T01:45:52;5.22;;;3.15;;
4061;SDS011;2046;47.064;15.456;2023-07-20T01:48:18;4.07;;;3.30;;
4061;SDS011;2046;47.064;15.456;2023-07-20T01:50:45;4.13;;;2.80;;
4061;SDS011;2046;47.064;15.456;2023-07-20T01:53:12;8.52;;;3.15;;
4061;SDS011;2046;47.064;15.456;2023-07-20T01:55:38;4.47;;;3.20;;
4061;SDS011;2046;47.064;15.456;2023-07-20T01:58:05;5.45;;;3.47;;
4061;SDS011;2046;47.064;15.456;2023-07-20T02:00:32;3.85;;;3.28;;
4061;SDS011;2046;47.064;15.456;2023-07-20T02:02:59;4.57;;;3.10;;
4061;SDS011;2046;47.064;15.456;2023-07-20T02:05:26;7.18;;;3.45;;
4061;SDS011;2046;47.064;15.456;2023-07-20T02:07:53;4.82;;;3.47;;
4061;SDS011;2046;47.064;15.456;2023-07-20T02:10:19;6.20;;;3.25;;
4061;SDS011;2046;47.064;15.456;2023-07-20T02:12:47;7.43;;;2.70;;
4061;SDS011;2046;47.064;15.456;2023-07-20T02:15:14;4.15;;;3.05;;
4061;SDS011;2046;47.064;15.456;2023-07-20T02:17:42;5.72;;;3.38;;
4061;SDS011;2046;47.064;15.456;2023-07-20T02:20:09;7.18;;;4.00;;
4061;SDS011;2046;47.064;15.456;2023-07-20T02:22:37;9.05;;;3.50;;
4061;SDS011;2046;47.064;15.456;2023-07-20T02:25:06;7.20;;;3.08;;
4061;SDS011;2046;47.064;15.456;2023-07-20T02:27:34;8.02;;;2.95;;
4061;SDS011;2046;47.064;15.456;2023-07-20T02:30:01;3.88;;;3.25;;
4061;SDS011;2046;47.064;15.456;2023-07-20T02:32:28;4.68;;;3.30;;
4061;SDS011;2046;47.064;15.456;2023-07-20T02:34:55;5.60;;;3.63;;
4061;SDS011;2046;47.064;15.456;2023-07-20T02:37:21;5.15;;;3.17;;
4061;SDS011;2046;47.064;15.456;2023-07-20T02:39:48;6.68;;;3.28;;
4061;SDS011;2046;47.064;15.456;2023-07-20T02:42:14;6.40;;;3.30;;
4061;SDS011;2046;47.064;15.456;2023-07-20T02:44:41;6.47;;;3.47;;
4061;SDS011;2046;47.064;15.456;2023-07-20T02:47:08;4.82;;;3.05;;
4061;SDS011;2046;47.064;15.456;2023-07-20T02:49:35;7.28;;;3.28;;
4061;SDS011;2046;47.064;15.456;2023-07-20T02:52:02;6.45;;;3.60;;
4061;SDS011;2046;47.064;15.456;2023-07-20T02:54:28;5.90;;;2.92;;
4061;SDS011;2046;47.064;15.456;2023-07-20T02:56:56;5.05;;;2.72;;
4061;SDS011;2046;47.064;15.456;2023-07-20T02:59:23;4.07;;;3.28;;
4061;SDS011;2046;47.064;15.456;2023-07-20T03:01:49;6.50;;;3.00;;
4061;SDS011;2046;47.064;15.456;2023-07-20T03:04:16;5.35;;;3.15;;
4061;SDS011;2046;47.064;15.456;2023-07-20T03:06:43;4.82;;;3.20;;
4061;SDS011;2046;47.064;15.456;2023-07-20T03:09:09;7.72;;;3.08;;
4061;SDS011;2046;47.064;15.456;2023-07-20T03:11:36;6.43;;;3.25;;
4061;SDS011;2046;47.064;15.456;2023-07-20T03:14:03;4.63;;;2.50;;
4061;SDS011;2046;47.064;15.456;2023-07-20T03:16:30;4.20;;;2.83;;
4061;SDS011;2046;47.064;15.456;2023-07-20T03:18:59;6.00;;;3.28;;
4061;SDS011;2046;47.064;15.456;2023-07-20T03:21:27;4.10;;;2.75;;
4061;SDS011;2046;47.064;15.456;2023-07-20T03:23:53;7.60;;;3.30;;
4061;SDS011;2046;47.064;15.456;2023-07-20T03:26:20;4.85;;;2.60;;
4061;SDS011;2046;47.064;15.456;2023-07-20T03:28:48;4.70;;;2.85;;
4061;SDS011;2046;47.064;15.456;2023-07-20T03:31:15;3.45;;;2.95;;
4061;SDS011;2046;47.064;15.456;2023-07-20T03:33:42;4.97;;;2.85;;
4061;SDS011;2046;47.064;15.456;2023-07-20T03:36:08;3.88;;;2.63;;
4061;SDS011;2046;47.064;15.456;2023-07-20T03:38:36;3.65;;;2.63;;
4061;SDS011;2046;47.064;15.456;2023-07-20T03:41:03;5.30;;;2.63;;
4061;SDS011;2046;47.064;15.456;2023-07-20T03:43:29;4.28;;;2.67;;
4061;SDS011;2046;47.064;15.456;2023-07-20T03:45:56;5.30;;;2.83;;
4061;SDS011;2046;47.064;15.456;2023-07-20T03:48:24;5.93;;;2.92;;
4061;SDS011;2046;47.064;15.456;2023-07-20T03:50:51;5.15;;;2.45;;
4061;SDS011;2046;47.064;15.456;2023-07-20T03:53:18;4.05;;;2.80;;
4061;SDS011;2046;47.064;15.456;2023-07-20T03:55:48;5.95;;;2.78;;
4061;SDS011;2046;47.064;15.456;2023-07-20T03:58:15;4.25;;;2.70;;
4061;SDS011;2046;47.064;15.456;2023-07-20T04:00:45;4.32;;;2.55;;
4061;SDS011;2046;47.064;15.456;2023-07-20T04:03:12;5.30;;;2.88;;
4061;SDS011;2046;47.064;15.456;2023-07-20T04:05:39;4.68;;;2.83;;
4061;SDS011;2046;47.064;15.456;2023-07-20T04:08:06;6.85;;;3.03;;
4061;SDS011;2046;47.064;15.456;2023-07-20T04:10:33;4.28;;;3.08;;
4061;SDS011;2046;47.064;15.456;2023-07-20T04:13:00;6.90;;;2.95;;
4061;SDS011;2046;47.064;15.456;2023-07-20T04:15:26;6.68;;;2.53;;
4061;SDS011;2046;47.064;15.456;2023-07-20T04:17:53;5.97;;;2.85;;
4061;SDS011;2046;47.064;15.456;2023-07-20T04:20:20;5.35;;;2.83;;
4061;SDS011;2046;47.064;15.456;2023-07-20T04:22:47;4.78;;;2.67;;
4061;SDS011;2046;47.064;15.456;2023-07-20T04:25:14;5.10;;;3.35;;
4061;SDS011;2046;47.064;15.456;2023-07-20T04:27:40;3.97;;;2.58;;
4061;SDS011;2046;47.064;15.456;2023-07-20T04:30:07;3.92;;;2.80;;
4061;SDS011;2046;47.064;15.456;2023-07-20T04:32:34;3.42;;;2.80;;
4061;SDS011;2046;47.064;15.456;2023-07-20T04:35:05;4.75;;;3.10;;
4061;SDS011;2046;47.064;15.456;2023-07-20T04:37:32;6.10;;;3.30;;
4061;SDS011;2046;47.064;15.456;2023-07-20T04:39:58;3.80;;;2.88;;
4061;SDS011;2046;47.064;15.456;2023-07-20T04:42:25;6.78;;;3.00;;
4061;SDS011;2046;47.064;15.456;2023-07-20T04:44:52;4.38;;;3.17;;
4061;SDS011;2046;47.064;15.456;2023-07-20T04:47:18;6.50;;;3.03;;
4061;SDS011;2046;47.064;15.456;2023-07-20T04:49:45;5.68;;;3.30;;
4061;SDS011;2046;47.064;15.456;2023-07-20T04:52:11;7.97;;;3.25;;
4061;SDS011;2046;47.064;15.456;2023-07-20T04:54:38;4.70;;;2.85;;
4061;SDS011;2046;47.064;15.456;2023-07-20T04:57:11;6.55;;;3.15;;
4061;SDS011;2046;47.064;15.456;2023-07-20T04:59:38;3.97;;;2.97;;
4061;SDS011;2046;47.064;15.456;2023-07-20T05:02:04;4.50;;;2.97;;
4061;SDS011;2046;47.064;15.456;2023-07-20T05:04:31;4.85;;;3.40;;
4061;SDS011;2046;47.064;15.456;2023-07-20T05:07:04;3.55;;;2.58;;
4061;SDS011;2046;47.064;15.456;2023-07-20T05:09:30;3.35;;;2.70;;
4061;SDS011;2046;47.064;15.456;2023-07-20T05:11:57;5.93;;;3.13;;
4061;SDS011;2046;47.064;15.456;2023-07-20T05:14:23;5.93;;;3.15;;
4061;SDS011;2046;47.064;15.456;2023-07-20T05:16:51;4.03;;;3.30;;
4061;SDS011;2046;47.064;15.456;2023-07-20T05:19:17;4.38;;;3.08;;
4061;SDS011;2046;47.064;15.456;2023-07-20T05:21:44;4.22;;;3.00;;
4061;SDS011;2046;47.064;15.456;2023-07-20T05:24:11;8.20;;;3.10;;
4061;SDS011;2046;47.064;15.456;2023-07-20T05:26:37;5.68;;;2.83;;
4061;SDS011;2046;47.064;15.456;2023-07-20T05:29:04;5.18;;;2.80;;
4061;SDS011;2046;47.064;15.456;2023-07-20T05:31:31;3.33;;;3.03;;
4061;SDS011;2046;47.064;15.456;2023-07-20T05:33:58;4.90;;;3.22;;
4061;SDS011;2046;47.064;15.456;2023-07-20T05:36:24;5.85;;;3.40;;
4061;SDS011;2046;47.064;15.456;2023-07-20T05:38:51;6.22;;;3.13;;
4061;SDS011;2046;47.064;15.456;2023-07-20T05:41:18;3.88;;;2.70;;
4061;SDS011;2046;47.064;15.456;2023-07-20T05:43:44;7.15;;;2.75;;
4061;SDS011;2046;47.064;15.456;2023-07-20T05:46:11;4.63;;;3.13;;
4061;SDS011;2046;47.064;15.456;2023-07-20T05:48:38;4.00;;;2.83;;
4061;SDS011;2046;47.064;15.456;2023-07-20T05:51:04;3.47;;;3.03;;
4061;SDS011;2046;47.064;15.456;2023-07-20T05:53:31;3.65;;;3.05;;
4061;SDS011;2046;47.064;15.456;2023-07-20T05:55:58;3.75;;;2.60;;
4061;SDS011;2046;47.064;15.456;2023-07-20T05:58:25;4.30;;;2.80;;
4061;SDS011;2046;47.064;15.456;2023-07-20T06:00:53;6.75;;;3.30;;
4061;SDS011;2046;47.064;15.456;2023-07-20T06:03:19;7.68;;;2.85;;
4061;SDS011;2046;47.064;15.456;2023-07-20T06:05:48;4.30;;;2.83;;
4061;SDS011;2046;47.064;15.456;2023-07-20T06:08:14;5.38;;;2.70;;
4061;SDS011;2046;47.064;15.456;2023-07-20T06:10:41;4.60;;;3.20;;
4061;SDS011;2046;47.064;15.456;2023-07-20T06:13:11;5.38;;;3.05;;
4061;SDS011;2046;47.064;15.456;2023-07-20T06:15:38;5.97;;;2.83;;
4061;SDS011;2046;47.064;15.456;2023-07-20T06:18:05;5.43;;;2.90;;
4061;SDS011;2046;47.064;15.456;2023-07-20T06:20:32;4.63;;;2.80;;
4061;SDS011;2046;47.064;15.456;2023-07-20T06:22:58;4.82;;;2.72;;
4061;SDS011;2046;47.064;15.456;2023-07-20T06:25:25;8.57;;;3.10;;
4061;SDS011;2046;47.064;15.456;2023-07-20T06:27:52;4.10;;;3.05;;
4061;SDS011;2046;47.064;15.456;2023-07-20T06:30:20;5.65;;;3.28;;
4061;SDS011;2046;47.064;15.456;2023-07-20T06:32:46;4.05;;;2.67;;
4061;SDS011;2046;47.064;15.456;2023-07-20T06:35:13;29.08;;;3.78;;
4061;SDS011;2046;47.064;15.456;2023-07-20T06:37:40;7.57;;;3.40;;
4061;SDS011;2046;47.064;15.456;2023-07-20T06:40:07;6.35;;;2.88;;
4061;SDS011;2046;47.064;15.456;2023-07-20T06:42:38;3.00;;;2.50;;
4061;SDS011;2046;47.064;15.456;2023-07-20T06:45:07;6.32;;;3.10;;
4061;SDS011;2046;47.064;15.456;2023-07-20T06:47:37;5.63;;;3.00;;
4061;SDS011;2046;47.064;15.456;2023-07-20T06:50:04;4.80;;;3.47;;
4061;SDS011;2046;47.064;15.456;2023-07-20T06:52:31;8.18;;;3.28;;
4061;SDS011;2046;47.064;15.456;2023-07-20T06:54:57;7.93;;;5.18;;
4061;SDS011;2046;47.064;15.456;2023-07-20T06:57:29;11.15;;;6.63;;
4061;SDS011;2046;47.064;15.456;2023-07-20T06:59:55;11.68;;;7.38;;
4061;SDS011;2046;47.064;15.456;2023-07-20T07:02:22;10.93;;;9.23;;
4061;SDS011;2046;47.064;15.456;2023-07-20T07:04:48;24.33;;;14.25;;
4061;SDS011;2046;47.064;15.456;2023-07-20T07:07:25;18.27;;;12.88;;
4061;SDS011;2046;47.064;15.456;2023-07-20T07:09:53;17.77;;;13.70;;
4061;SDS011;2046;47.064;15.456;2023-07-20T07:12:19;18.00;;;13.50;;
4061;SDS011;2046;47.064;15.456;2023-07-20T07:14:46;9.48;;;7.70;;
4061;SDS011;2046;47.064;15.456;2023-07-20T07:17:12;6.40;;;4.63;;
4061;SDS011;2046;47.064;15.456;2023-07-20T07:19:45;5.65;;;3.47;;
4061;SDS011;2046;47.064;15.456;2023-07-20T07:22:14;5.03;;;2.83;;
4061;SDS011;2046;47.064;15.456;2023-07-20T07:24:41;3.85;;;2.50;;
4061;SDS011;2046;47.064;15.456;2023-07-20T07:27:08;15.02;;;10.90;;
4061;SDS011;2046;47.064;15.456;2023-07-20T07:29:35;8.73;;;7.10;;
4061;SDS011;2046;47.064;15.456;2023-07-20T07:32:02;6.50;;;3.80;;
4061;SDS011;2046;47.064;15.456;2023-07-20T07:34:29;10.30;;;3.35;;
4061;SDS011;2046;47.064;15.456;2023-07-20T07:36:55;3.35;;;2.72;;
4061;SDS011;2046;47.064;15.456;2023-07-20T07:39:22;4.40;;;3.00;;
4061;SDS011;2046;47.064;15.456;2023-07-20T07:41:53;3.25;;;2.60;;
4061;SDS011;2046;47.064;15.456;2023-07-20T07:44:20;4.72;;;2.75;;
4061;SDS011;2046;47.064;15.456;2023-07-20T07:46:47;6.38;;;3.08;;
4061;SDS011;2046;47.064;15.456;2023-07-20T07:49:15;6.10;;;2.83;;
4061;SDS011;2046;47.064;15.456;2023-07-20T07:51:42;3.65;;;2.50;;
4061;SDS011;2046;47.064;15.456;2023-07-20T07:54:08;4.25;;;2.15;;
4061;SDS011;2046;47.064;15.456;2023-07-20T07:56:36;3.08;;;2.40;;
4061;SDS011;2046;47.064;15.456;2023-07-20T07:59:03;4.93;;;3.22;;
4061;SDS011;2046;47.064;15.456;2023-07-20T08:01:29;3.75;;;2.90;;
4061;SDS011;2046;47.064;15.456;2023-07-20T08:03:56;5.53;;;2.83;;
4061;SDS011;2046;47.064;15.456;2023-07-20T08:06:23;5.60;;;2.80;;
4061;SDS011;2046;47.064;15.456;2023-07-20T08:08:51;4.28;;;2.90;;
4061;SDS011;2046;47.064;15.456;2023-07-20T08:11:17;7.43;;;2.60;;
4061;SDS011;2046;47.064;15.456;2023-07-20T08:13:44;7.32;;;2.90;;
4061;SDS011;2046;47.064;15.456;2023-07-20T08:16:13;3.17;;;2.67;;
4061;SDS011;2046;47.064;15.456;2023-07-20T08:18:41;6.45;;;2.78;;
4061;SDS011;2046;47.064;15.456;2023-07-20T08:21:09;6.75;;;3.95;;
4061;SDS011;2046;47.064;15.456;2023-07-20T08:23:39;5.93;;;3.05;;
4061;SDS011;2046;47.064;15.456;2023-07-20T08:26:06;3.65;;;2.70;;
4061;SDS011;2046;47.064;15.456;2023-07-20T08:28:33;5.00;;;2.97;;
4061;SDS011;2046;47.064;15.456;2023-07-20T08:31:00;5.72;;;3.55;;
4061;SDS011;2046;47.064;15.456;2023-07-20T08:33:29;12.73;;;3.00;;
4061;SDS011;2046;47.064;15.456;2023-07-20T08:36:00;5.47;;;2.72;;
4061;SDS011;2046;47.064;15.456;2023-07-20T08:38:27;6.53;;;3.03;;
4061;SDS011;2046;47.064;15.456;2023-07-20T08:40:54;4.03;;;3.03;;
4061;SDS011;2046;47.064;15.456;2023-07-20T08:43:22;3.58;;;2.60;;
4061;SDS011;2046;47.064;15.456;2023-07-20T08:45:50;4.43;;;2.58;;
4061;SDS011;2046;47.064;15.456;2023-07-20T08:48:18;5.10;;;2.20;;
4061;SDS011;2046;47.064;15.456;2023-07-20T08:50:45;4.82;;;2.40;;
4061;SDS011;2046;47.064;15.456;2023-07-20T08:53:12;3.00;;;2.67;;
4061;SDS011;2046;47.064;15.456;2023-07-20T08:55:39;2.88;;;2.30;;
4061;SDS011;2046;47.064;15.456;2023-07-20T08:58:08;7.57;;;3.17;;
4061;SDS011;2046;47.064;15.456;2023-07-20T09:00:35;4.65;;;2.30;;
4061;SDS011;2046;47.064;15.456;2023-07-20T09:03:02;3.40;;;2.15;;
4061;SDS011;2046;47.064;15.456;2023-07-20T09:05:29;4.50;;;2.17;;
4061;SDS011;2046;47.064;15.456;2023-07-20T09:07:58;3.90;;;2.25;;
4061;SDS011;2046;47.064;15.456;2023-07-20T09:10:25;9.27;;;2.20;;
4061;SDS011;2046;47.064;15.456;2023-07-20T09:12:52;4.03;;;2.70;;
4061;SDS011;2046;47.064;15.456;2023-07-20T09:15:18;4.60;;;2.55;;
4061;SDS011;2046;47.064;15.456;2023-07-20T09:17:46;7.78;;;3.10;;
4061;SDS011;2046;47.064;15.456;2023-07-20T09:20:14;4.88;;;2.13;;
4061;SDS011;2046;47.064;15.456;2023-07-20T09:22:43;4.38;;;2.30;;
4061;SDS011;2046;47.064;15.456;2023-07-20T09:25:19;5.13;;;2.50;;
4061;SDS011;2046;47.064;15.456;2023-07-20T09:27:55;5.03;;;2.58;;
4061;SDS011;2046;47.064;15.456;2023-07-20T09:30:25;2.47;;;2.25;;
4061;SDS011;2046;47.064;15.456;2023-07-20T09:33:00;3.47;;;2.42;;
4061;SDS011;2046;47.064;15.456;2023-07-20T09:35:27;5.45;;;2.90;;
4061;SDS011;2046;47.064;15.456;2023-07-20T09:38:07;3.50;;;2.33;;
4061;SDS011;2046;47.064;15.456;2023-07-20T09:40:38;6.90;;;2.10;;
4061;SDS011;2046;47.064;15.456;2023-07-20T09:43:08;6.10;;;2.58;;
4061;SDS011;2046;47.064;15.456;2023-07-20T09:45:41;4.70;;;2.50;;
4061;SDS011;2046;47.064;15.456;2023-07-20T09:48:11;6.93;;;2.30;;
4061;SDS011;2046;47.064;15.456;2023-07-20T09:50:42;3.22;;;2.40;;
4061;SDS011;2046;47.064;15.456;2023-07-20T09:53:12;9.65;;;2.72;;
4061;SDS011;2046;47.064;15.456;2023-07-20T09:55:44;6.47;;;2.15;;
4061;SDS011;2046;47.064;15.456;2023-07-20T09:58:13;3.17;;;2.10;;
4061;SDS011;2046;47.064;15.456;2023-07-20T10:00:40;6.05;;;2.90;;
4061;SDS011;2046;47.064;15.456;2023-07-20T10:03:17;3.08;;;2.47;;
4061;SDS011;2046;47.064;15.456;2023-07-20T10:05:46;9.90;;;2.25;;
4061;SDS011;2046;47.064;15.456;2023-07-20T10:08:14;3.78;;;2.45;;
4061;SDS011;2046;47.064;15.456;2023-07-20T10:10:44;4.00;;;2.35;;
4061;SDS011;2046;47.064;15.456;2023-07-20T10:13:21;5.90;;;2.35;;
4061;SDS011;2046;47.064;15.456;2023-07-20T10:15:56;6.30;;;2.88;;
4061;SDS011;2046;47.064;15.456;2023-07-20T10:20:51;2.45;;;2.00;;
4061;SDS011;2046;47.064;15.456;2023-07-20T10:23:23;11.65;;;2.63;;
4061;SDS011;2046;47.064;15.456;2023-07-20T10:25:50;2.83;;;2.25;;
4061;SDS011;2046;47.064;15.456;2023-07-20T10:28:16;107.32;;;76.00;;
4061;SDS011;2046;47.064;15.456;2023-07-20T10:30:43;120.85;;;77.78;;
4061;SDS011;2046;47.064;15.456;2023-07-20T10:33:11;66.35;;;49.92;;
4061;SDS011;2046;47.064;15.456;2023-07-20T10:35:54;488.80;;;356.65;;
4061;SDS011;2046;47.064;15.456;2023-07-20T10:38:40;209.70;;;160.57;;
4061;SDS011;2046;47.064;15.456;2023-07-20T10:41:20;91.60;;;67.22;;
4061;SDS011;2046;47.064;15.456;2023-07-20T10:43:47;72.30;;;49.15;;
4061;SDS011;2046;47.064;15.456;2023-07-20T10:46:14;59.25;;;39.13;;
4061;SDS011;2046;47.064;15.456;2023-07-20T10:48:59;37.63;;;27.27;;
4061;SDS011;2046;47.064;15.456;2023-07-20T10:51:27;455.17;;;339.67;;
4061;SDS011;2046;47.064;15.456;2023-07-20T10:53:57;167.35;;;118.93;;
4061;SDS011;2046;47.064;15.456;2023-07-20T10:56:26;230.57;;;161.55;;
4061;SDS011;2046;47.064;15.456;2023-07-20T10:58:59;162.77;;;82.30;;
4061;SDS011;2046;47.064;15.456;2023-07-20T11:01:30;315.13;;;120.40;;
4061;SDS011;2046;47.064;15.456;2023-07-20T11:04:01;368.90;;;147.82;;
4061;SDS011;2046;47.064;15.456;2023-07-20T11:08:55;105.90;;;41.72;;
4061;SDS011;2046;47.064;15.456;2023-07-20T11:11:26;71.57;;;29.58;;
4061;SDS011;2046;47.064;15.456;2023-07-20T11:13:54;51.42;;;20.55;;
4061;SDS011;2046;47.064;15.456;2023-07-20T11:16:31;20.70;;;10.07;;
4061;SDS011;2046;47.064;15.456;2023-07-20T11:18:59;11.02;;;6.35;;
4061;SDS011;2046;47.064;15.456;2023-07-20T11:21:26;12.57;;;5.68;;
4061;SDS011;2046;47.064;15.456;2023-07-20T11:23:53;12.30;;;9.35;;
4061;SDS011;2046;47.064;15.456;2023-07-20T11:26:19;11.75;;;6.15;;
4061;SDS011;2046;47.064;15.456;2023-07-20T11:28:49;9.88;;;6.15;;
4061;SDS011;2046;47.064;15.456;2023-07-20T11:31:18;8.60;;;4.35;;
4061;SDS011;2046;47.064;15.456;2023-07-20T11:33:45;5.97;;;3.45;;
4061;SDS011;2046;47.064;15.456;2023-07-20T11:36:12;4.97;;;3.30;;
4061;SDS011;2046;47.064;15.456;2023-07-20T11:38:43;8.00;;;3.55;;
4061;SDS011;2046;47.064;15.456;2023-07-20T11:41:10;11.38;;;4.30;;
4061;SDS011;2046;47.064;15.456;2023-07-20T11:43:37;7.13;;;3.50;;
4061;SDS011;2046;47.064;15.456;2023-07-20T11:46:05;4.93;;;3.03;;
4061;SDS011;2046;47.064;15.456;2023-07-20T11:48:31;4.90;;;2.53;;
4061;SDS011;2046;47.064;15.456;2023-07-20T11:50:58;4.95;;;2.70;;
4061;SDS011;2046;47.064;15.456;2023-07-20T11:53:25;4.75;;;2.50;;
4061;SDS011;2046;47.064;15.456;2023-07-20T11:55:53;4.60;;;2.42;;
4061;SDS011;2046;47.064;15.456;2023-07-20T11:58:20;3.67;;;2.55;;
4061;SDS011;2046;47.064;15.456;2023-07-20T12:00:47;6.55;;;2.58;;
4061;SDS011;2046;47.064;15.456;2023-07-20T12:03:14;4.63;;;2.15;;
4061;SDS011;2046;47.064;15.456;2023-07-20T12:05:41;2.83;;;2.20;;
4061;SDS011;2046;47.064;15.456;2023-07-20T12:08:10;4.53;;;2.22;;
4061;SDS011;2046;47.064;15.456;2023-07-20T12:10:39;5.88;;;2.35;;
4061;SDS011;2046;47.064;15.456;2023-07-20T12:13:10;4.80;;;1.90;;
4061;SDS011;2046;47.064;15.456;2023-07-20T12:15:37;4.40;;;1.63;;
4061;SDS011;2046;47.064;15.456;2023-07-20T12:18:03;6.28;;;2.35;;
4061;SDS011;2046;47.064;15.456;2023-07-20T12:23:00;5.65;;;1.83;;
4061;SDS011;2046;47.064;15.456;2023-07-20T12:25:36;9.93;;;2.00;;
4061;SDS011;2046;47.064;15.456;2023-07-20T12:28:09;3.58;;;1.80;;
4061;SDS011;2046;47.064;15.456;2023-07-20T12:30:37;3.20;;;2.03;;
4061;SDS011;2046;47.064;15.456;2023-07-20T12:33:04;4.85;;;1.73;;
4061;SDS011;2046;47.064;15.456;2023-07-20T12:35:31;3.05;;;1.98;;
4061;SDS011;2046;47.064;15.456;2023-07-20T12:37:58;2.95;;;1.63;;
4061;SDS011;2046;47.064;15.456;2023-07-20T12:40:25;8.27;;;1.75;;
4061;SDS011;2046;47.064;15.456;2023-07-20T12:42:51;1.90;;;1.45;;
4061;SDS011;2046;47.064;15.456;2023-07-20T12:45:18;2.65;;;1.80;;
4061;SDS011;2046;47.064;15.456;2023-07-20T12:47:45;7.18;;;2.08;;
4061;SDS011;2046;47.064;15.456;2023-07-20T12:50:12;1.95;;;1.73;;
4061;SDS011;2046;47.064;15.456;2023-07-20T12:52:39;2.03;;;1.38;;
4061;SDS011;2046;47.064;15.456;2023-07-20T12:55:06;3.08;;;1.70;;
4061;SDS011;2046;47.064;15.456;2023-07-20T12:57:34;1.83;;;1.50;;
4061;SDS011;2046;47.064;15.456;2023-07-20T13:00:05;2.28;;;1.63;;
4061;SDS011;2046;47.064;15.456;2023-07-20T13:02:32;2.92;;;1.55;;
4061;SDS011;2046;47.064;15.456;2023-07-20T13:04:59;3.10;;;1.52;;
4061;SDS011;2046;47.064;15.456;2023-07-20T13:07:32;1.42;;;1.33;;
4061;SDS011;2046;47.064;15.456;2023-07-20T13:10:02;2.88;;;1.63;;
4061;SDS011;2046;47.064;15.456;2023-07-20T13:12:29;3.92;;;1.70;;
4061;SDS011;2046;47.064;15.456;2023-07-20T13:14:55;2.92;;;1.88;;
4061;SDS011;2046;47.064;15.456;2023-07-20T13:17:22;1.65;;;1.20;;
4061;SDS011;2046;47.064;15.456;2023-07-20T13:19:49;1.70;;;1.48;;
4061;SDS011;2046;47.064;15.456;2023-07-20T13:22:16;1.23;;;1.13;;
4061;SDS011;2046;47.064;15.456;2023-07-20T13:24:46;1.90;;;1.50;;
4061;SDS011;2046;47.064;15.456;2023-07-20T13:27:17;1.52;;;1.30;;
4061;SDS011;2046;47.064;15.456;2023-07-20T13:29:45;3.13;;;1.52;;
4061;SDS011;2046;47.064;15.456;2023-07-20T13:32:14;2.92;;;1.50;;
4061;SDS011;2046;47.064;15.456;2023-07-20T13:34:41;1.42;;;1.23;;
4061;SDS011;2046;47.064;15.456;2023-07-20T13:37:08;1.30;;;1.20;;
4061;SDS011;2046;47.064;15.456;2023-07-20T13:39:38;1.63;;;1.50;;
4061;SDS011;2046;47.064;15.456;2023-07-20T13:42:05;2.85;;;1.58;;
4061;SDS011;2046;47.064;15.456;2023-07-20T13:44:32;2.10;;;1.50;;
4061;SDS011;2046;47.064;15.456;2023-07-20T13:46:59;2.65;;;1.63;;
4061;SDS011;2046;47.064;15.456;2023-07-20T13:49:45;2.40;;;1.55;;
4061;SDS011;2046;47.064;15.456;2023-07-20T13:52:13;2.00;;;1.20;;
4061;SDS011;2046;47.064;15.456;2023-07-20T13:54:43;4.78;;;1.38;;
4061;SDS011;2046;47.064;15.456;2023-07-20T13:57:13;2.25;;;1.40;;
4061;SDS011;2046;47.064;15.456;2023-07-20T13:59:41;3.63;;;1.38;;
4061;SDS011;2046;47.064;15.456;2023-07-20T14:02:08;3.28;;;1.27;;
4061;SDS011;2046;47.064;15.456;2023-07-20T14:04:38;1.73;;;1.30;;
4061;SDS011;2046;47.064;15.456;2023-07-20T14:07:05;1.92;;;1.40;;
4061;SDS011;2046;47.064;15.456;2023-07-20T14:09:32;5.40;;;1.05;;
4061;SDS011;2046;47.064;15.456;2023-07-20T14:11:59;2.17;;;1.40;;
4061;SDS011;2046;47.064;15.456;2023-07-20T14:14:29;3.40;;;1.48;;
4061;SDS011;2046;47.064;15.456;2023-07-20T14:16:55;1.42;;;1.33;;
4061;SDS011;2046;47.064;15.456;2023-07-20T14:19:22;2.22;;;1.15;;
4061;SDS011;2046;47.064;15.456;2023-07-20T14:21:49;4.18;;;1.33;;
4061;SDS011;2046;47.064;15.456;2023-07-20T14:24:16;2.35;;;1.48;;
4061;SDS011;2046;47.064;15.456;2023-07-20T14:26:45;2.40;;;1.60;;
4061;SDS011;2046;47.064;15.456;2023-07-20T14:29:12;1.50;;;1.40;;
4061;SDS011;2046;47.064;15.456;2023-07-20T14:31:39;2.75;;;1.30;;
4061;SDS011;2046;47.064;15.456;2023-07-20T14:34:06;2.63;;;1.35;;
4061;SDS011;2046;47.064;15.456;2023-07-20T14:36:32;4.95;;;1.58;;
4061;SDS011;2046;47.064;15.456;2023-07-20T14:39:00;3.05;;;1.35;;
4061;SDS011;2046;47.064;15.456;2023-07-20T14:41:28;1.67;;;1.10;;
4061;SDS011;2046;47.064;15.456;2023-07-20T14:43:54;3.22;;;1.50;;
4061;SDS011;2046;47.064;15.456;2023-07-20T14:46:23;1.92;;;1.20;;
4061;SDS011;2046;47.064;15.456;2023-07-20T14:48:50;1.55;;;1.45;;
4061;SDS011;2046;47.064;15.456;2023-07-20T14:51:18;1.30;;;1.15;;
4061;SDS011;2046;47.064;15.456;2023-07-20T14:53:45;1.65;;;1.40;;
4061;SDS011;2046;47.064;15.456;2023-07-20T14:56:12;3.28;;;1.52;;
4061;SDS011;2046;47.064;15.456;2023-07-20T14:58:40;1.45;;;1.35;;
4061;SDS011;2046;47.064;15.456;2023-07-20T15:01:07;1.48;;;1.30;;
4061;SDS011;2046;47.064;15.456;2023-07-20T15:03:34;1.33;;;1.23;;
4061;SDS011;2046;47.064;15.456;2023-07-20T15:06:02;2.20;;;1.60;;
4061;SDS011;2046;47.064;15.456;2023-07-20T15:08:30;1.58;;;1.38;;
4061;SDS011;2046;47.064;15.456;2023-07-20T15:10:58;2.50;;;1.50;;
4061;SDS011;2046;47.064;15.456;2023-07-20T15:13:28;1.42;;;1.33;;
4061;SDS011;2046;47.064;15.456;2023-07-20T15:15:59;1.45;;;1.30;;
4061;SDS011;2046;47.064;15.456;2023-07-20T15:18:27;2.10;;;1.42;;
4061;SDS011;2046;47.064;15.456;2023-07-20T15:21:13;1.73;;;1.42;;
4061;SDS011;2046;47.064;15.456;2023-07-20T15:23:41;1.90;;;1.27;;